Terminal Aerodrome Forecast
Issued by NWS Houston/Galveston, TX

Home | Current Version | Previous Version | Text Only | Print | Product List | Glossary On
Versions: 1 2 3 4 5 6 7 8 9 10 11 12 13 14 15 16 17 18
000
FTUS44 KHGX 241409 AAA
TAFCLL
TAF AMD
KCLL 241409Z 2414/2512 17014KT P6SM VCSH BKN015 OVC020
     FM241700 18013KT P6SM SCT030
     FM242100 21010KT P6SM VCTS BKN040CB
     FM250300 36006KT P6SM FEW050 SCT250
     FM250900 00000KT 5SM BR FEW250=

USA.gov is the U.S. government's official web portal to all federal, state and local government web resources and services.